Time;durP1;ratioP1;P1;durP2;ratioP2;P2;SDS_P1;SDS_P2;PMS_P1;PMS_P2;Temp;Humidity;BMP_temperature;BMP_pressure;BME280_temperature;BME280_humidity;BME280_pressure;Samples;Min_cycle;Max_cycle;Signal;HPM_P1;HPM_P2
2022/09/13 00:01:30;;;;;;;20.02;17.92;;;;;;;15.42;93.52;99736.85;1825182;78;20871;-88
2022/09/13 00:03:57;;;;;;;17.75;16.12;;;;;;;15.42;93.83;99728.43;1824970;78;21165;-88
2022/09/13 00:06:23;;;;;;;20.37;18.27;;;;;;;15.41;94.02;99736.52;1822969;78;20966;-88
2022/09/13 00:08:51;;;;;;;20.68;18.77;;;;;;;15.41;94.02;99736.52;1822846;78;21286;-89
2022/09/13 00:11:24;;;;;;;24.27;18.40;;;;;;;15.39;93.93;99730.05;1822547;78;20922;-89
2022/09/13 00:13:52;;;;;;;18.42;16.40;;;;;;;15.39;93.93;99730.05;1822523;78;20840;-88
2022/09/13 00:16:20;;;;;;;19.75;16.20;;;;;;;15.38;93.80;99725.73;1822546;78;21124;-88
2022/09/13 00:18:47;;;;;;;19.17;17.30;;;;;;;15.40;93.78;99721.14;1822570;78;21390;-89
2022/09/13 00:21:16;;;;;;;20.65;18.75;;;;;;;15.36;93.66;99718.44;1822873;78;20958;-87
2022/09/13 00:23:46;;;;;;;19.17;17.32;;;;;;;15.36;93.66;99718.44;1822653;78;20939;-88
2022/09/13 00:26:22;;;;;;;18.12;16.23;;;;;;;15.36;93.70;99725.53;1821780;78;20967;-88
2022/09/13 00:28:53;;;;;;;21.48;18.10;;;;;;;15.34;93.63;99723.06;1822542;78;21130;-87
2022/09/13 00:31:22;;;;;;;19.95;17.70;;;;;;;15.30;93.46;99709.30;1822432;78;20820;-89
2022/09/13 00:33:49;;;;;;;18.10;16.23;;;;;;;15.31;93.66;99708.80;1822377;78;20884;-88
2022/09/13 00:36:16;;;;;;;20.62;17.10;;;;;;;15.31;93.66;99708.80;1822158;78;20962;-89
2022/09/13 00:38:43;;;;;;;18.67;16.70;;;;;;;15.32;94.10;99705.20;1822746;78;20958;-88
2022/09/13 00:41:15;;;;;;;18.40;16.60;;;;;;;15.32;94.10;99705.20;1822781;78;21190;-88
2022/09/13 00:43:54;;;;;;;18.87;16.02;;;;;;;15.33;94.21;99702.39;1822524;78;20919;-88
2022/09/13 00:46:35;;;;;;;19.65;17.67;;;;;;;15.34;94.18;99704.07;1822300;78;20844;-88
2022/09/13 00:49:08;;;;;;;19.07;17.00;;;;;;;15.33;93.97;99702.39;1822185;78;21013;-89
2022/09/13 00:51:34;;;;;;;17.85;16.07;;;;;;;15.33;94.12;99699.75;1817020;78;21309;-88
2022/09/13 00:54:00;;;;;;;20.57;18.48;;;;;;;15.32;94.29;99697.27;1817639;78;21150;-88
2022/09/13 00:56:39;;;;;;;20.72;18.07;;;;;;;15.32;94.29;99697.27;1822105;78;20895;-88
2022/09/13 00:59:18;;;;;;;20.77;17.57;;;;;;;15.32;94.19;99698.59;1822203;78;21372;-88
2022/09/13 01:01:51;;;;;;;21.50;18.23;;;;;;;15.32;94.19;99698.59;1821936;78;20924;-88
2022/09/13 01:04:19;;;;;;;19.02;17.07;;;;;;;15.31;94.31;99701.70;1822037;78;20829;-88
2022/09/13 01:06:45;;;;;;;19.45;16.93;;;;;;;15.31;94.31;99701.70;1822022;78;21113;-88
2022/09/13 01:09:14;;;;;;;21.02;16.90;;;;;;;15.31;94.07;99696.42;1821799;78;20946;-87
2022/09/13 01:12:07;;;;;;;18.87;17.07;;;;;;;15.29;94.23;99694.91;1821618;78;20895;-88
2022/09/13 01:14:32;;;;;;;19.42;17.45;;;;;;;15.29;94.23;99694.91;1821628;78;20963;-87
2022/09/13 01:17:01;;;;;;;19.82;17.92;;;;;;;15.29;94.36;99694.91;1816928;78;20914;-88
2022/09/13 01:19:29;;;;;;;21.48;18.05;;;;;;;15.30;94.49;99699.23;1821806;78;21305;-87
2022/09/13 01:22:16;;;;;;;18.98;17.12;;;;;;;15.32;94.80;99698.59;1822636;78;20895;-88
2022/09/13 01:25:06;;;;;;;19.82;17.80;;;;;;;15.31;94.65;99703.02;1824750;78;20970;-88
2022/09/13 01:27:40;;;;;;;18.65;16.67;;;;;;;15.31;94.65;99703.02;1822756;78;20931;-88
2022/09/13 01:30:23;;;;;;;19.10;17.10;;;;;;;15.31;94.49;99691.62;1822168;78;21510;-88
2022/09/13 01:33:24;;;;;;;17.07;15.50;;;;;;;15.28;94.54;99695.89;1821723;78;20888;-88
2022/09/13 01:36:30;;;;;;;19.20;17.23;;;;;;;15.28;94.54;99695.89;1821062;78;20939;-87
2022/09/13 01:39:01;;;;;;;20.48;18.37;;;;;;;15.23;94.28;99687.09;1821570;78;21389;-88
2022/09/13 01:41:47;;;;;;;19.42;17.57;;;;;;;15.23;94.58;99696.33;1821343;78;20884;-89
2022/09/13 01:44:35;;;;;;;20.43;18.32;;;;;;;15.24;95.00;99691.88;1821738;78;20904;-88
2022/09/13 01:47:31;;;;;;;19.48;16.80;;;;;;;15.25;94.65;99699.66;1821999;78;21201;-88
2022/09/13 01:50:30;;;;;;;18.23;16.42;;;;;;;15.25;94.65;99699.66;1820779;78;20876;-88
2022/09/13 01:53:01;;;;;;;19.40;17.40;;;;;;;15.27;94.69;99695.53;1821214;78;20962;-87
2022/09/13 01:55:49;;;;;;;19.05;17.25;;;;;;;15.27;95.09;99703.45;1821499;78;20856;-88
2022/09/13 01:58:45;;;;;;;21.27;17.73;;;;;;;15.27;95.09;99703.45;1822555;78;20841;-88
2022/09/13 02:01:17;;;;;;;20.88;18.65;;;;;;;15.27;94.92;99705.64;1825351;77;21188;-88
2022/09/13 02:04:12;;;;;;;19.23;17.23;;;;;;;15.27;94.87;99701.67;1824834;78;20899;-88
2022/09/13 02:06:51;;;;;;;21.05;18.85;;;;;;;15.27;94.79;99699.50;1824638;77;20978;-89
2022/09/13 02:09:22;;;;;;;21.60;19.40;;;;;;;15.27;94.73;99696.86;1822820;78;20911;-89
2022/09/13 02:11:53;;;;;;;20.00;17.35;;;;;;;15.26;94.83;99695.20;1821896;78;20935;-90
2022/09/13 02:14:24;;;;;;;20.65;17.90;;;;;;;15.25;94.57;99689.09;1824343;78;21228;-89
2022/09/13 02:16:59;;;;;;;19.67;17.87;;;;;;;15.23;94.53;99689.73;1821447;78;21318;-87
2022/09/13 02:19:32;;;;;;;20.15;18.12;;;;;;;15.23;94.47;99692.84;1821997;78;20900;-87
2022/09/13 02:21:59;;;;;;;20.62;18.25;;;;;;;15.20;94.52;99693.96;1818489;78;20907;-89
2022/09/13 02:24:30;;;;;;;24.80;18.70;;;;;;;15.22;94.56;99693.83;1821925;78;20919;-88
2022/09/13 02:27:00;;;;;;;22.73;20.32;;;;;;;15.22;94.59;99699.11;1821797;78;21133;-87
2022/09/13 02:29:27;;;;;;;20.02;17.80;;;;;;;15.21;94.21;99687.72;1821575;78;20860;-88
2022/09/13 02:31:59;;;;;;;19.98;17.90;;;;;;;15.21;94.21;99687.72;1821882;78;21360;-87
2022/09/13 02:34:37;;;;;;;20.88;18.70;;;;;;;15.21;94.36;99686.39;1821543;78;21369;-88
2022/09/13 02:37:04;;;;;;;21.37;19.15;;;;;;;15.20;94.45;99686.53;1822107;78;20982;-88
2022/09/13 02:39:31;;;;;;;21.25;18.92;;;;;;;15.20;94.60;99687.36;1821985;78;21115;-88
2022/09/13 02:42:12;;;;;;;21.27;18.52;;;;;;;15.21;94.55;99686.89;1821597;78;20912;-87
2022/09/13 02:44:48;;;;;;;21.85;17.67;;;;;;;15.21;94.55;99686.89;1822739;78;20911;-87
2022/09/13 02:47:44;;;;;;;20.92;18.12;;;;;;;15.21;94.58;99682.94;1824826;77;20950;-86
2022/09/13 02:50:36;;;;;;;22.58;18.65;;;;;;;15.18;94.40;99685.34;1822563;78;21073;-87
2022/09/13 02:53:26;;;;;;;25.77;18.55;;;;;;;15.18;94.40;99685.34;1822021;78;21065;-87
2022/09/13 02:56:14;;;;;;;21.12;18.50;;;;;;;15.17;94.23;99685.52;1821996;78;20943;-87
2022/09/13 02:58:48;;;;;;;25.50;19.40;;;;;;;15.14;94.25;99682.68;1821640;78;20935;-87
2022/09/13 03:01:14;;;;;;;21.95;19.37;;;;;;;15.14;94.31;99689.28;1821544;78;20966;-87
2022/09/13 03:03:41;;;;;;;23.40;20.90;;;;;;;15.14;94.22;99685.32;1821571;78;21362;-87
2022/09/13 03:06:07;;;;;;;27.35;20.55;;;;;;;15.12;94.25;99688.09;1816534;78;21277;-86
2022/09/13 03:08:34;;;;;;;23.42;19.82;;;;;;;15.13;94.29;99684.46;1821807;78;20954;-87
2022/09/13 03:11:27;;;;;;;24.77;19.87;;;;;;;15.13;94.12;99675.72;1821709;78;20955;-87
2022/09/13 03:14:11;;;;;;;26.00;22.22;;;;;;;15.10;93.97;99670.23;1821030;78;20967;-87
2022/09/13 03:17:08;;;;;;;31.45;25.85;;;;;;;15.08;94.14;99669.55;1817214;78;21417;-87
2022/09/13 03:20:18;;;;;;;35.28;26.65;;;;;;;15.09;94.21;99667.23;1798166;78;21179;-87
2022/09/13 03:23:28;;;;;;;34.27;26.45;;;;;;;15.08;94.22;99665.59;1821618;78;20868;-86
2022/09/13 03:26:22;;;;;;;31.73;26.45;;;;;;;15.08;94.14;99668.23;1821411;78;21330;-86
2022/09/13 03:29:04;;;;;;;34.40;26.57;;;;;;;15.07;94.13;99662.62;1822020;78;20848;-87
2022/09/13 03:31:38;;;;;;;38.60;28.12;;;;;;;15.08;94.18;99668.23;1821856;78;20891;-85
2022/09/13 03:34:12;;;;;;;40.63;28.90;;;;;;;15.06;94.21;99663.58;1821181;78;21817;-86
2022/09/13 03:36:47;;;;;;;44.98;31.33;;;;;;;15.07;94.20;99662.62;1821520;78;20872;-87
2022/09/13 03:39:25;;;;;;;38.85;29.63;;;;;;;15.07;94.16;99668.36;1821418;78;21373;-87
2022/09/13 03:41:55;;;;;;;52.75;40.67;;;;;;;15.07;94.17;99661.77;1803913;78;20989;-86
2022/09/13 03:44:22;;;;;;;62.73;42.50;;;;;;;15.06;94.20;99659.62;1821750;78;20832;-87
2022/09/13 03:46:52;;;;;;;77.00;53.10;;;;;;;15.06;94.21;99650.37;1821674;78;21133;-87
2022/09/13 03:49:19;;;;;;;84.95;56.33;;;;;;;15.07;94.26;99649.41;1821717;78;20875;-86
2022/09/13 03:51:47;;;;;;;84.35;57.75;;;;;;;15.08;94.28;99656.84;1822234;78;20927;-87
2022/09/13 03:54:19;;;;;;;93.45;68.55;;;;;;;15.09;94.33;99650.07;1824074;78;20888;-87
2022/09/13 03:57:14;;;;;;;92.02;63.98;;;;;;;15.10;94.35;99650.93;1821819;78;20963;-86
2022/09/13 03:59:49;;;;;;;87.25;61.30;;;;;;;15.12;94.32;99652.94;1821694;78;21914;-87
2022/09/13 04:02:16;;;;;;;93.85;63.85;;;;;;;15.15;94.30;99652.64;1821682;78;20962;-87
2022/09/13 04:04:43;;;;;;;81.28;60.48;;;;;;;15.20;94.65;99651.70;1821929;78;21016;-85
2022/09/13 04:07:12;;;;;;;89.67;63.92;;;;;;;15.20;94.65;99651.70;1824664;78;20939;-86
2022/09/13 04:09:40;;;;;;;86.97;64.45;;;;;;;15.22;94.24;99652.89;1824298;78;20903;-86
2022/09/13 04:12:08;;;;;;;82.82;62.05;;;;;;;15.24;94.13;99649.12;1822052;78;21135;-86
2022/09/13 04:14:35;;;;;;;84.05;62.38;;;;;;;15.28;94.07;99653.63;1822293;78;20901;-86
2022/09/13 04:17:02;;;;;;;81.90;55.88;;;;;;;15.33;93.82;99657.48;1821970;78;20880;-87
2022/09/13 04:19:30;;;;;;;65.92;52.75;;;;;;;15.33;93.82;99657.48;1821672;78;20884;-87
2022/09/13 04:21:56;;;;;;;63.60;49.83;;;;;;;15.37;93.84;99654.07;1821645;78;21408;-87
2022/09/13 04:24:26;;;;;;;64.42;49.15;;;;;;;15.42;93.73;99652.30;1821711;78;21137;-87
2022/09/13 04:26:53;;;;;;;73.05;53.08;;;;;;;15.46;93.65;99651.86;1821904;78;20974;-88
2022/09/13 04:29:20;;;;;;;72.82;56.02;;;;;;;15.49;93.51;99647.59;1821852;78;20848;-87
2022/09/13 04:31:48;;;;;;;78.15;57.83;;;;;;;15.53;93.35;99650.28;1821791;78;20908;-86
2022/09/13 04:34:16;;;;;;;79.35;57.03;;;;;;;15.54;93.00;99653.28;1821867;78;20883;-87
2022/09/13 04:36:44;;;;;;;65.78;51.77;;;;;;;15.56;92.45;99655.77;1821725;78;21490;-87
2022/09/13 04:39:14;;;;;;;74.30;52.30;;;;;;;15.56;92.45;99655.77;1821685;78;21290;-88
2022/09/13 04:41:44;;;;;;;55.67;44.98;;;;;;;15.57;92.26;99657.94;1821563;78;21349;-88
2022/09/13 04:44:10;;;;;;;48.60;38.02;;;;;;;15.56;91.87;99653.12;1821725;78;20840;-88
2022/09/13 04:46:37;;;;;;;38.50;33.15;;;;;;;15.55;91.50;99656.26;1822514;78;20871;-89
2022/09/13 04:49:03;;;;;;;33.73;30.27;;;;;;;15.54;91.34;99653.78;1825273;77;21118;-88
2022/09/13 04:51:30;;;;;;;34.38;28.23;;;;;;;15.52;90.97;99657.06;1825322;78;20915;-89
2022/09/13 04:53:57;;;;;;;43.83;38.60;;;;;;;15.51;90.83;99653.56;1825398;77;20887;-88
2022/09/13 04:56:24;;;;;;;30.32;26.60;;;;;;;15.52;90.74;99654.42;1825627;77;20915;-90
2022/09/13 04:58:51;;;;;;;29.90;25.08;;;;;;;15.50;90.62;99659.84;1825383;77;20907;-89
2022/09/13 05:01:19;;;;;;;27.20;23.70;;;;;;;15.50;90.62;99659.84;1825366;77;21349;-90
2022/09/13 05:03:45;;;;;;;28.23;24.85;;;;;;;15.49;90.51;99655.52;1826078;77;21463;-88
2022/09/13 05:06:16;;;;;;;25.82;23.22;;;;;;;15.49;90.51;99655.52;1826884;78;20840;-90
2022/09/13 05:08:43;;;;;;;25.23;21.15;;;;;;;15.49;89.96;99660.80;1826425;77;20950;-88
2022/09/13 05:11:10;;;;;;;31.35;23.57;;;;;;;15.49;89.96;99660.80;1828531;77;20871;-91
2022/09/13 05:13:36;;;;;;;33.50;23.77;;;;;;;15.50;89.73;99660.34;1828237;76;21166;-89
2022/09/13 05:16:05;;;;;;;27.80;24.82;;;;;;;15.49;89.55;99659.48;1828097;76;20927;-90
2022/09/13 05:18:35;;;;;;;25.72;22.50;;;;;;;15.50;89.48;99663.80;1827752;77;20900;-91
2022/09/13 05:21:04;;;;;;;30.88;24.23;;;;;;;15.51;89.40;99660.67;1825491;77;21014;-88
2022/09/13 05:23:34;;;;;;;27.85;24.47;;;;;;;15.52;89.42;99663.67;1825948;78;20907;-88
2022/09/13 05:26:04;;;;;;;34.13;24.10;;;;;;;15.50;89.77;99655.05;1826549;78;21212;-87
2022/09/13 05:28:33;;;;;;;31.62;25.65;;;;;;;15.50;89.77;99655.05;1828480;77;20879;-88
2022/09/13 05:31:03;;;;;;;29.75;25.97;;;;;;;15.50;89.54;99665.13;1826786;76;20829;-88
2022/09/13 05:33:34;;;;;;;35.60;27.67;;;;;;;15.51;89.50;99668.59;1826108;78;20864;-89
2022/09/13 05:36:02;;;;;;;33.23;25.37;;;;;;;15.46;89.01;99659.79;1826004;78;21345;-88
2022/09/13 05:38:29;;;;;;;32.40;25.72;;;;;;;15.46;89.01;99659.79;1827187;78;21283;-86
2022/09/13 05:40:57;;;;;;;32.80;25.62;;;;;;;15.48;89.19;99667.58;1827391;77;20915;-86
2022/09/13 05:43:26;;;;;;;31.82;25.30;;;;;;;15.46;89.13;99665.08;1826038;78;21021;-88
2022/09/13 05:46:03;;;;;;;26.45;22.98;;;;;;;15.44;88.97;99670.99;1825484;77;20955;-89
2022/09/13 05:48:33;;;;;;;25.80;22.20;;;;;;;15.44;88.97;99670.99;1822327;78;20951;-89
2022/09/13 05:51:14;;;;;;;30.27;23.50;;;;;;;15.42;88.80;99674.27;1822088;78;21184;-88
2022/09/13 05:53:43;;;;;;;28.57;22.37;;;;;;;15.42;89.17;99672.13;1821999;78;21330;-89
2022/09/13 05:56:12;;;;;;;26.35;22.80;;;;;;;15.41;89.24;99675.27;1821933;78;20891;-90
2022/09/13 05:58:47;;;;;;;29.48;20.88;;;;;;;15.42;89.30;99678.73;1822298;78;20899;-88
2022/09/13 06:01:16;;;;;;;32.13;24.85;;;;;;;15.41;89.34;99677.08;1822064;78;21014;-86
2022/09/13 06:03:43;;;;;;;27.80;22.02;;;;;;;15.40;89.30;99675.39;1822683;78;21248;-88
2022/09/13 06:06:09;;;;;;;30.10;23.20;;;;;;;15.41;89.05;99681.04;1823245;78;20864;-87
2022/09/13 06:08:36;;;;;;;33.70;24.37;;;;;;;15.41;89.05;99681.04;1791869;78;20927;-88
2022/09/13 06:11:07;;;;;;;30.70;25.45;;;;;;;15.41;89.48;99682.36;1823453;78;20919;-87
2022/09/13 06:13:36;;;;;;;30.65;26.35;;;;;;;15.40;89.50;99688.61;1791641;78;20978;-90
2022/09/13 06:16:06;;;;;;;37.03;30.80;;;;;;;15.41;89.23;99688.47;1823414;78;21272;-89
2022/09/13 06:18:34;;;;;;;38.67;31.50;;;;;;;15.40;89.09;99688.11;1823294;78;20986;-89
2022/09/13 06:21:03;;;;;;;36.95;29.25;;;;;;;15.39;88.99;99690.42;1823996;78;20895;-90
2022/09/13 06:23:30;;;;;;;47.00;37.50;;;;;;;15.36;88.69;99697.80;1823744;78;20947;-89
2022/09/13 06:26:08;;;;;;;43.10;31.80;;;;;;;15.36;88.69;99697.80;1823858;78;20908;-89
2022/09/13 06:28:35;;;;;;;39.13;29.98;;;;;;;15.34;88.96;99697.96;1823553;78;23692;-88
2022/09/13 06:31:05;;;;;;;42.33;30.45;;;;;;;15.32;88.94;99698.10;1823400;78;20863;-90
2022/09/13 06:33:34;;;;;;;43.10;31.02;;;;;;;15.31;88.98;99700.88;1822955;78;21002;-89
2022/09/13 06:36:03;;;;;;;40.17;31.20;;;;;;;15.30;88.96;99705.83;1822426;78;20884;-90
2022/09/13 06:38:30;;;;;;;40.90;30.23;;;;;;;15.26;88.96;99698.67;1822659;77;20907;-89
2022/09/13 06:41:05;;;;;;;39.50;30.00;;;;;;;15.27;89.20;99704.78;1822802;78;21212;-90
2022/09/13 06:43:35;;;;;;;41.95;30.68;;;;;;;15.27;89.20;99704.78;1823982;78;20805;-90
2022/09/13 06:46:07;;;;;;;43.58;30.02;;;;;;;15.28;88.94;99705.14;1824360;77;21018;-90
2022/09/13 06:48:35;;;;;;;44.53;29.67;;;;;;;15.30;88.96;99701.88;1827228;77;20931;-90
2022/09/13 06:51:04;;;;;;;42.98;32.65;;;;;;;15.32;89.02;99701.23;1826751;78;20903;-89
2022/09/13 06:53:32;;;;;;;38.75;28.67;;;;;;;15.33;89.05;99699.75;1826531;78;21232;-91
2022/09/13 06:56:05;;;;;;;41.18;31.23;;;;;;;15.37;89.09;99703.44;1826669;78;20883;-90
2022/09/13 06:58:32;;;;;;;40.23;29.52;;;;;;;15.40;88.94;99695.21;1822744;78;20864;-90
2022/09/13 07:01:20;;;;;;;40.95;29.40;;;;;;;15.49;89.03;99698.30;1827115;78;20931;-92
2022/09/13 07:03:54;;;;;;;34.95;27.17;;;;;;;15.54;89.08;99696.89;1827569;78;20959;-92
2022/09/13 07:06:25;;;;;;;39.95;29.48;;;;;;;15.54;89.08;99696.89;1825914;78;21189;-90
2022/09/13 07:08:55;;;;;;;43.83;31.03;;;;;;;15.59;88.62;99703.55;1826942;78;20927;-90
2022/09/13 07:11:24;;;;;;;46.92;33.33;;;;;;;15.63;88.38;99701.78;1826972;78;20927;-89
2022/09/13 07:13:55;;;;;;;40.15;28.55;;;;;;;15.66;88.16;99700.16;1826647;78;21357;-90
2022/09/13 07:16:28;;;;;;;41.92;29.25;;;;;;;15.69;87.79;99709.59;1826671;78;20906;-91
2022/09/13 07:18:59;;;;;;;38.30;28.25;;;;;;;15.68;87.84;99702.66;1826861;78;21440;-89
2022/09/13 07:21:26;;;;;;;45.28;30.50;;;;;;;15.69;87.16;99699.03;1799319;78;20991;-90
2022/09/13 07:23:54;;;;;;;83.45;63.90;;;;;;;15.69;87.16;99699.03;1826575;78;20990;-89
2022/09/13 07:26:21;;;;;;;69.37;54.33;;;;;;;15.70;87.08;99705.99;1826540;78;21357;-90
2022/09/13 07:28:49;;;;;;;44.98;30.00;;;;;;;15.69;87.06;99709.10;1799104;78;20895;-90
2022/09/13 07:31:23;;;;;;;42.40;30.50;;;;;;;15.67;86.84;99707.12;1825679;78;21437;-88
2022/09/13 07:33:56;;;;;;;35.50;27.93;;;;;;;15.68;86.73;99711.91;1826038;78;20887;-91
2022/09/13 07:36:23;;;;;;;37.55;27.77;;;;;;;15.67;86.57;99709.77;1825631;78;20856;-90
2022/09/13 07:38:49;;;;;;;37.10;26.85;;;;;;;15.69;86.45;99709.10;1825336;78;20868;-90
2022/09/13 07:41:21;;;;;;;39.80;28.47;;;;;;;15.69;86.45;99709.59;1825588;78;20951;-89
2022/09/13 07:43:47;;;;;;;38.85;27.58;;;;;;;15.67;86.17;99707.12;1825074;78;21081;-89
2022/09/13 07:46:17;;;;;;;35.92;28.80;;;;;;;15.69;86.33;99705.64;1825922;78;20935;-88
2022/09/13 07:48:44;;;;;;;35.95;27.52;;;;;;;15.69;86.32;99709.59;1822968;78;20916;-90
2022/09/13 07:51:26;;;;;;;42.58;28.52;;;;;;;15.66;86.34;99710.73;1823340;78;20833;-90
2022/09/13 07:53:56;;;;;;;34.18;25.75;;;;;;;15.65;86.12;99705.11;1823578;78;20959;-92
2022/09/13 07:56:30;;;;;;;40.43;32.17;;;;;;;15.65;86.00;99708.22;1823794;78;21211;-91
2022/09/13 07:59:00;;;;;;;31.57;23.55;;;;;;;15.62;86.05;99703.25;1823453;78;20950;-90
2022/09/13 08:01:36;;;;;;;35.45;25.45;;;;;;;15.63;86.03;99707.07;1823251;78;20986;-88
2022/09/13 08:04:10;;;;;;;33.30;22.80;;;;;;;15.61;85.93;99709.52;1824213;78;21153;-91
2022/09/13 08:06:38;;;;;;;23.45;19.52;;;;;;;15.62;85.69;99709.85;1823977;78;20907;-90
2022/09/13 08:09:07;;;;;;;24.72;20.57;;;;;;;15.57;85.94;99707.66;1824375;78;20993;-89
2022/09/13 08:11:40;;;;;;;24.47;21.05;;;;;;;15.57;85.94;99707.66;1824297;78;20935;-89
2022/09/13 08:14:12;;;;;;;27.60;21.05;;;;;;;15.61;85.62;99708.20;1824994;78;20888;-91
2022/09/13 08:16:39;;;;;;;24.55;19.98;;;;;;;15.61;85.38;99714.31;1824296;78;21073;-90
2022/09/13 08:19:07;;;;;;;23.73;19.85;;;;;;;15.60;85.37;99711.31;1824421;77;20947;-91
2022/09/13 08:21:37;;;;;;;27.00;21.73;;;;;;;15.61;85.53;99710.34;1824493;77;21083;-90
2022/09/13 08:24:07;;;;;;;23.60;20.25;;;;;;;15.65;85.78;99709.08;1824443;77;20958;-89
2022/09/13 08:26:35;;;;;;;24.52;21.27;;;;;;;15.70;86.06;99698.89;1824488;77;21025;-89
2022/09/13 08:29:05;;;;;;;24.20;20.00;;;;;;;15.80;85.47;99705.46;1824765;78;20923;-90
2022/09/13 08:31:32;;;;;;;23.42;19.10;;;;;;;15.84;85.64;99708.16;1824347;78;20868;-90
2022/09/13 08:33:59;;;;;;;23.70;19.62;;;;;;;15.87;85.46;99705.20;1824466;78;23006;-92
2022/09/13 08:36:27;;;;;;;22.95;20.02;;;;;;;15.93;85.32;99714.37;1823252;78;20919;-91
2022/09/13 08:39:01;;;;;;;35.95;29.32;;;;;;;16.05;84.86;99702.61;1823347;78;21006;-91
2022/09/13 08:42:02;;;;;;;23.10;19.77;;;;;;;16.05;84.86;99702.61;1823161;78;20993;-91
2022/09/13 08:44:35;;;;;;;23.47;19.85;;;;;;;16.15;84.79;99702.03;1823472;78;20946;-92
2022/09/13 08:47:22;;;;;;;22.22;18.98;;;;;;;16.31;84.39;99700.02;1823025;78;21889;-92
2022/09/13 08:49:53;;;;;;;21.17;19.00;;;;;;;16.43;83.76;99696.67;1823255;78;20879;-91
2022/09/13 08:52:47;;;;;;;20.50;18.27;;;;;;;16.52;82.87;99695.75;1823688;78;20918;-91
2022/09/13 08:55:22;;;;;;;19.87;17.73;;;;;;;16.57;82.25;99705.88;1822990;78;20998;-91
2022/09/13 08:58:09;;;;;;;21.37;18.32;;;;;;;16.58;81.78;99695.14;1822643;78;20995;-89
2022/09/13 09:00:42;;;;;;;22.75;19.80;;;;;;;16.62;81.78;99701.44;1820993;78;21123;-92
2022/09/13 09:03:23;;;;;;;20.57;18.35;;;;;;;16.67;81.75;99693.36;1822897;78;20856;-92
2022/09/13 09:05:50;;;;;;;18.05;16.15;;;;;;;16.77;81.52;99702.55;1813133;78;20914;-90
2022/09/13 09:08:30;;;;;;;16.57;14.87;;;;;;;16.92;81.42;99697.56;1823558;78;20942;-90
2022/09/13 09:10:59;;;;;;;17.95;16.15;;;;;;;17.15;80.85;99692.55;1824894;77;20884;-91
2022/09/13 09:13:33;;;;;;;14.90;13.50;;;;;;;17.42;79.76;99697.33;1824050;78;21322;-90
2022/09/13 09:16:24;;;;;;;18.98;17.12;;;;;;;17.64;78.21;99692.77;1822938;78;20836;-90
2022/09/13 09:18:51;;;;;;;19.12;17.35;;;;;;;17.84;77.15;99688.05;1822861;78;20927;-91
2022/09/13 09:21:20;;;;;;;16.20;14.63;;;;;;;18.01;75.72;99695.06;1791377;78;20954;-91
2022/09/13 09:23:53;;;;;;;14.30;12.80;;;;;;;18.08;74.94;99693.91;1824865;78;20899;-91
2022/09/13 09:26:22;;;;;;;14.28;13.08;;;;;;;18.15;74.62;99694.91;1824974;78;21232;-92
2022/09/13 09:29:17;;;;;;;12.15;11.10;;;;;;;18.27;74.14;99695.92;1822849;78;21326;-91
2022/09/13 09:32:10;;;;;;;12.82;11.60;;;;;;;18.50;74.07;99693.42;1822759;78;20923;-91
2022/09/13 09:35:16;;;;;;;9.90;9.10;;;;;;;18.80;73.13;99696.77;1822913;78;20954;-92
2022/09/13 09:37:53;;;;;;;9.23;8.43;;;;;;;19.20;71.75;99693.69;1822867;77;21459;-94
2022/09/13 09:40:21;;;;;;;9.10;8.30;;;;;;;19.66;69.54;99696.52;1790164;78;20879;-94
2022/09/13 09:42:50;;;;;;;8.88;7.28;;;;;;;19.96;68.29;99702.03;1823517;78;22221;-91
2022/09/13 09:45:32;;;;;;;6.97;6.45;;;;;;;20.24;67.06;99693.03;1822930;78;20935;-93
2022/09/13 09:48:04;;;;;;;7.28;6.58;;;;;;;20.48;66.18;99696.02;1822801;78;21389;-92
2022/09/13 09:50:35;;;;;;;6.08;5.58;;;;;;;20.62;64.49;99698.94;1791480;78;20832;-91
2022/09/13 09:53:13;;;;;;;6.63;6.07;;;;;;;20.66;63.82;99702.90;1793262;77;20931;-92
2022/09/13 09:56:07;;;;;;;6.50;5.95;;;;;;;20.69;63.60;99702.02;1824217;78;20891;-94
2022/09/13 09:58:40;;;;;;;7.12;6.53;;;;;;;20.70;63.54;99698.36;1824602;78;20927;-90
2022/09/13 10:01:24;;;;;;;15.50;13.80;;;;;;;20.81;62.89;99698.91;1824481;78;21388;-92
2022/09/13 10:04:02;;;;;;;11.08;9.78;;;;;;;20.86;62.12;99695.22;1824370;78;26362;-91
2022/09/13 10:06:30;;;;;;;20.37;18.32;;;;;;;20.88;61.72;99697.20;1808768;78;21153;-92
2022/09/13 10:09:15;;;;;;;5.50;5.03;;;;;;;20.95;61.24;99702.13;1819312;78;20907;-92
2022/09/13 10:11:58;;;;;;;6.35;5.78;;;;;;;21.02;60.24;99703.04;1824635;78;20946;-92
2022/09/13 10:14:38;;;;;;;6.03;5.53;;;;;;;21.05;59.49;99700.52;1795209;78;20880;-93
2022/09/13 10:17:24;;;;;;;6.20;5.70;;;;;;;21.05;59.01;99700.00;1823928;78;20950;-93
2022/09/13 10:20:20;;;;;;;4.83;4.37;;;;;;;20.99;58.96;99698.59;1823523;78;21928;-93
2022/09/13 10:22:55;;;;;;;5.03;4.62;;;;;;;21.00;58.72;99698.91;1791531;78;20899;-93
2022/09/13 10:25:24;;;;;;;3.87;3.60;;;;;;;21.06;58.48;99699.00;1819721;78;20903;-93
2022/09/13 10:27:54;;;;;;;4.50;4.17;;;;;;;21.12;57.81;99697.42;1823897;78;21436;-93
2022/09/13 10:30:38;;;;;;;9.85;9.05;;;;;;;21.11;57.69;99691.27;1823244;78;20867;-92
2022/09/13 10:33:05;;;;;;;5.08;4.67;;;;;;;21.08;57.33;99698.31;1822979;78;21440;-92
2022/09/13 10:35:32;;;;;;;4.62;4.22;;;;;;;21.05;57.43;99694.66;1823973;78;20848;-89
2022/09/13 10:38:01;;;;;;;6.62;6.12;;;;;;;21.06;57.63;99700.34;1823689;78;20915;-90
2022/09/13 10:40:33;;;;;;;5.20;4.80;;;;;;;21.09;57.52;99702.63;1823544;78;20844;-90
2022/09/13 10:43:03;;;;;;;3.98;3.77;;;;;;;21.08;57.43;99700.98;1823575;78;20885;-92
2022/09/13 10:45:31;;;;;;;3.58;3.35;;;;;;;21.07;57.11;99698.49;1824454;77;21170;-92
2022/09/13 10:48:06;;;;;;;5.12;4.72;;;;;;;21.08;57.25;99693.50;1824680;78;20892;-91
2022/09/13 10:50:34;;;;;;;4.03;3.83;;;;;;;21.09;57.54;99699.14;1827080;78;20840;-92
2022/09/13 10:53:35;;;;;;;3.62;3.42;;;;;;;21.06;56.64;99699.00;1827371;78;20879;-93
2022/09/13 10:56:03;;;;;;;4.40;3.47;;;;;;;20.98;56.29;99700.41;1799647;78;20911;-93
2022/09/13 10:58:30;;;;;;;3.25;3.05;;;;;;;20.84;56.85;99696.73;1827005;78;21302;-92
2022/09/13 11:01:11;;;;;;;2.65;2.45;;;;;;;20.75;56.92;99695.66;1827168;78;21351;-92
2022/09/13 11:04:04;;;;;;;5.65;5.15;;;;;;;20.62;57.21;99697.09;1827891;78;20892;-93
2022/09/13 11:07:04;;;;;;;21.45;19.40;;;;;;;20.52;57.65;99697.83;1827319;77;20927;-94
2022/09/13 11:09:58;;;;;;;21.75;19.55;;;;;;;20.39;57.78;99689.61;1779820;77;20958;-94
2022/09/13 11:12:55;;;;;;;38.50;34.58;;;;;;;20.28;57.76;99698.84;1707566;80;21270;-96
2022/09/13 11:15:30;;;;;;;5.50;5.10;;;;;;;20.09;58.05;99678.83;1731279;81;20950;-90
2022/09/13 11:18:23;;;;;;;5.72;5.22;;;;;;;20.13;58.35;99700.61;1738699;82;20896;-88
2022/09/13 11:21:25;;;;;;;4.70;4.33;;;;;;;20.08;58.63;99700.64;1738360;81;20943;-93
2022/09/13 11:24:14;;;;;;;6.10;3.08;;;;;;;20.05;58.78;99693.49;1737152;81;20959;-92
2022/09/13 11:27:04;;;;;;;7.22;4.28;;;;;;;20.01;58.39;99698.84;1737839;82;21186;-92
2022/09/13 11:30:14;;;;;;;5.62;4.33;;;;;;;19.98;58.60;99697.36;1738265;81;20907;-92
2022/09/13 11:32:54;;;;;;;5.03;4.62;;;;;;;19.84;58.84;99680.31;1707657;78;21001;-92
2022/09/13 11:36:00;;;;;;;5.30;4.90;;;;;;;19.92;58.86;99698.56;1738432;81;20927;-92
2022/09/13 11:38:45;;;;;;;4.72;4.42;;;;;;;19.87;59.09;99690.59;1736855;81;21281;-90
2022/09/13 11:41:21;;;;;;;5.22;4.20;;;;;;;19.86;59.20;99688.13;1737746;81;21396;-92
2022/09/13 11:44:06;;;;;;;4.20;3.90;;;;;;;19.84;59.69;99688.30;1737942;82;21029;-91
2022/09/13 11:46:42;;;;;;;;;;;;;;;19.85;59.92;99690.45;1618215;87;20980;-91
2022/09/13 11:49:24;;;;;;;4.67;4.37;;;;;;;19.86;59.97;99690.80;1621021;84;20122;-91
2022/09/13 11:52:16;;;;;;;7.00;5.78;;;;;;;19.85;59.97;99691.78;1644282;82;20888;-92
2022/09/13 11:55:17;;;;;;;4.45;4.00;;;;;;;19.87;60.00;99690.59;1643125;86;21171;-92